Time;durP1;ratioP1;P1;durP2;ratioP2;P2;SDS_P1;SDS_P2;PMS_P1;PMS_P2;Temp;Humidity;BMP_temperature;BMP_pressure;BME280_temperature;BME280_humidity;BME280_pressure;Samples;Min_cycle;Max_cycle;Signal;HPM_P1;HPM_P2
2023/07/17 00:00:15;;;;;;;;;;;23.70;97.40;23.90;99857.00;;;;337766;28;82579;-96
2023/07/17 00:00:28;;;;;;;;;;;23.70;97.40;23.90;99866.00;;;;334802;29;94584;-96
2023/07/17 00:00:45;;;;;;;;;;;23.70;97.40;23.90;99860.00;;;;338418;28;82269;-96
2023/07/17 00:00:58;;;;;;;;;;;23.70;97.40;23.80;99852.00;;;;337243;28;96481;-96
2023/07/17 00:01:10;;;;;;;;;;;23.80;97.40;23.80;99855.00;;;;336941;28;82510;-96
2023/07/17 00:01:24;;;;;;;;;;;23.70;97.40;23.80;99856.00;;;;335125;29;95333;-96
2023/07/17 00:01:36;;;;;;;;;;;23.80;97.40;23.80;99859.00;;;;337305;28;83521;-96
2023/07/17 00:01:48;;;;;;;;;;;23.70;97.30;23.80;99860.00;;;;338982;28;94937;-96
2023/07/17 00:02:00;;;;;;;;;;;23.70;97.30;23.70;99863.00;;;;342171;28;82580;-96
2023/07/17 00:02:12;;;;;;;;;;;23.70;97.30;23.70;99860.00;;;;338771;28;95845;-96
2023/07/17 00:02:24;;;;;;;;;;;23.70;97.40;23.80;99862.00;;;;338348;28;82647;-96
2023/07/17 00:02:35;;;;;;;;;;;23.70;97.50;23.80;99866.00;;;;336148;28;95348;-96
2023/07/17 00:02:47;;;;;;;;;;;23.70;97.40;23.90;99863.00;;;;335414;29;82596;-96
2023/07/17 00:02:59;;;;;;;;;;;23.70;97.30;23.90;99862.00;;;;335983;28;96829;-96
2023/07/17 00:03:11;;;;;;;;;;;23.70;97.20;23.90;99860.00;;;;336904;28;83333;-96
2023/07/17 00:03:24;;;;;;;;;;;23.80;97.30;23.90;99862.00;;;;334921;29;96515;-96
2023/07/17 00:03:36;;;;;;;;;;;23.80;97.30;23.80;99860.00;;;;337483;28;83974;-96
2023/07/17 00:03:48;;;;;;;;;;;23.80;97.30;23.80;99854.00;;;;338842;28;95804;-96
2023/07/17 00:04:00;;;;;;;;;;;23.80;97.30;23.80;99858.00;;;;338292;28;83484;-96
2023/07/17 00:04:12;;;;;;;;;;;23.70;97.20;23.90;99863.00;;;;340158;28;95422;-96
2023/07/17 00:04:24;;;;;;;;;;;23.80;97.30;23.80;99859.00;;;;339766;28;83273;-96
2023/07/17 00:04:36;;;;;;;;;;;23.70;97.20;23.70;99860.00;;;;337618;28;94868;-96
2023/07/17 00:04:50;;;;;;;;;;;23.70;97.20;23.70;99861.00;;;;337052;28;82492;-96
2023/07/17 00:05:04;;;;;;;;;;;23.80;97.30;23.60;99855.00;;;;335889;28;96757;-96
2023/07/17 00:05:16;;;;;;;;;;;23.80;97.30;23.70;99860.00;;;;337048;28;82313;-96
2023/07/17 00:05:28;;;;;;;;;;;23.70;97.20;23.80;99860.00;;;;334890;29;95746;-96
2023/07/17 00:05:40;;;;;;;;;;;23.70;97.20;23.80;99857.00;;;;338106;28;82580;-96
2023/07/17 00:05:52;;;;;;;;;;;23.70;97.10;23.80;99862.00;;;;337583;28;95468;-96
2023/07/17 00:06:04;;;;;;;;;;;23.70;97.10;23.80;99859.00;;;;339709;28;82418;-96
2023/07/17 00:06:16;;;;;;;;;;;23.80;97.20;23.80;99864.00;;;;336341;28;96633;-96
2023/07/17 00:06:28;;;;;;;;;;;23.70;97.10;23.80;99859.00;;;;335935;29;83553;-96
2023/07/17 00:06:40;;;;;;;;;;;23.80;97.20;23.80;99859.00;;;;336614;28;95263;-96
2023/07/17 00:06:52;;;;;;;;;;;23.70;97.10;23.80;99861.00;;;;338407;28;82492;-96
2023/07/17 00:07:04;;;;;;;;;;;23.70;97.10;23.80;99850.00;;;;335283;29;97012;-96
2023/07/17 00:07:16;;;;;;;;;;;23.80;97.10;23.80;99858.00;;;;336099;29;83296;-96
2023/07/17 00:07:28;;;;;;;;;;;23.80;97.10;23.90;99860.00;;;;336597;28;94317;-96
2023/07/17 00:07:42;;;;;;;;;;;23.80;97.00;23.80;99855.00;;;;336355;28;82634;-96
2023/07/17 00:07:54;;;;;;;;;;;23.80;97.00;23.90;99849.00;;;;335602;28;93174;-96
2023/07/17 00:08:06;;;;;;;;;;;23.80;97.00;23.90;99858.00;;;;337251;28;82566;-96
2023/07/17 00:08:18;;;;;;;;;;;23.80;97.00;23.80;99858.00;;;;336682;28;93304;-96
2023/07/17 00:08:30;;;;;;;;;;;23.80;97.00;23.80;99853.00;;;;338356;28;82793;-96
2023/07/17 00:08:42;;;;;;;;;;;23.80;96.90;23.80;99853.00;;;;336245;28;95447;-96
2023/07/17 00:08:54;;;;;;;;;;;23.80;96.90;23.80;99849.00;;;;337107;28;82519;-96
2023/07/17 00:09:06;;;;;;;;;;;23.80;96.90;23.90;99848.00;;;;337959;28;96627;-96
2023/07/17 00:09:18;;;;;;;;;;;23.80;96.90;23.90;99855.00;;;;335985;28;82457;-96
2023/07/17 00:09:30;;;;;;;;;;;23.80;96.90;23.90;99851.00;;;;337839;28;95930;-96
2023/07/17 00:09:43;;;;;;;;;;;23.80;96.90;23.80;99850.00;;;;337385;28;83351;-96
2023/07/17 00:09:55;;;;;;;;;;;23.80;96.90;23.90;99845.00;;;;335183;28;94627;-96
2023/07/17 00:10:10;;;;;;;;;;;23.80;96.90;23.90;99852.00;;;;338729;28;82405;-96
2023/07/17 00:10:22;;;;;;;;;;;23.80;96.90;23.90;99854.00;;;;337957;28;94966;-96
2023/07/17 00:10:34;;;;;;;;;;;23.90;96.90;23.90;99852.00;;;;339445;28;83547;-96
2023/07/17 00:10:46;;;;;;;;;;;23.80;96.90;23.80;99852.00;;;;337852;28;95124;-96
2023/07/17 00:10:58;;;;;;;;;;;23.80;96.90;23.80;99851.00;;;;337385;28;83205;-96
2023/07/17 00:11:10;;;;;;;;;;;23.80;96.90;23.80;99848.00;;;;337853;28;97771;-96
2023/07/17 00:11:22;;;;;;;;;;;23.80;97.00;23.90;99849.00;;;;339969;28;82510;-96
2023/07/17 00:11:33;;;;;;;;;;;23.80;97.00;23.80;99850.00;;;;337429;28;95796;-96
2023/07/17 00:11:45;;;;;;;;;;;23.80;97.00;23.80;99849.00;;;;335690;29;82450;-95
2023/07/17 00:11:57;;;;;;;;;;;23.80;97.00;23.80;99849.00;;;;336186;28;95845;-96
2023/07/17 00:12:09;;;;;;;;;;;23.80;97.00;23.70;99854.00;;;;339358;28;82586;-96
2023/07/17 00:12:21;;;;;;;;;;;23.80;97.00;23.70;99860.00;;;;336303;28;95687;-96
2023/07/17 00:12:33;;;;;;;;;;;23.80;96.90;23.80;99849.00;;;;338381;28;83451;-96
2023/07/17 00:12:45;;;;;;;;;;;23.80;96.90;23.80;99853.00;;;;338774;28;93084;-96
2023/07/17 00:12:56;;;;;;;;;;;23.80;96.90;23.80;99849.00;;;;336854;28;82513;-96
2023/07/17 00:13:08;;;;;;;;;;;23.80;96.90;23.70;99854.00;;;;338404;28;96639;-96
2023/07/17 00:13:20;;;;;;;;;;;23.80;97.00;23.70;99850.00;;;;336805;28;83420;-96
2023/07/17 00:13:32;;;;;;;;;;;23.80;97.00;23.80;99853.00;;;;338563;28;95615;-96
2023/07/17 00:13:44;;;;;;;;;;;23.80;97.00;23.80;99856.00;;;;340818;28;82448;-96
2023/07/17 00:13:56;;;;;;;;;;;23.80;96.90;23.80;99857.00;;;;336034;28;96750;-96
2023/07/17 00:14:08;;;;;;;;;;;23.80;96.90;23.80;99851.00;;;;339468;28;82542;-96
2023/07/17 00:14:20;;;;;;;;;;;23.80;96.90;23.80;99853.00;;;;338666;28;95704;-96
2023/07/17 00:14:31;;;;;;;;;;;23.80;96.90;23.80;99850.00;;;;336769;28;82423;-96
2023/07/17 00:14:43;;;;;;;;;;;23.80;96.90;23.80;99849.00;;;;337475;28;93063;-96
2023/07/17 00:14:55;;;;;;;;;;;23.80;96.80;23.80;99843.00;;;;337767;28;84476;-96
2023/07/17 00:15:08;;;;;;;;;;;23.80;96.90;23.70;99843.00;;;;339577;28;97219;-96
2023/07/17 00:15:19;;;;;;;;;;;23.80;96.90;23.70;99857.00;;;;338168;28;83322;-96
2023/07/17 00:15:31;;;;;;;;;;;23.80;96.90;23.80;99852.00;;;;336047;28;96521;-96
2023/07/17 00:15:43;;;;;;;;;;;23.80;96.90;23.80;99847.00;;;;341999;28;82531;-96
2023/07/17 00:15:55;;;;;;;;;;;23.80;96.90;23.80;99851.00;;;;336927;28;98180;-96
2023/07/17 00:16:07;;;;;;;;;;;23.80;96.90;23.80;99846.00;;;;335692;29;82456;-96
2023/07/17 00:16:20;;;;;;;;;;;23.80;97.00;23.80;99847.00;;;;335804;28;94592;-96
2023/07/17 00:16:32;;;;;;;;;;;23.80;96.90;23.80;99844.00;;;;336882;28;82395;-96
2023/07/17 00:16:44;;;;;;;;;;;23.80;96.90;23.90;99852.00;;;;336019;28;94699;-96
2023/07/17 00:16:56;;;;;;;;;;;23.80;96.90;23.80;99856.00;;;;336781;28;82527;-96
2023/07/17 00:17:08;;;;;;;;;;;23.80;96.90;23.80;99849.00;;;;334713;29;96953;-96
2023/07/17 00:17:20;;;;;;;;;;;23.80;96.90;23.80;99848.00;;;;336843;28;83393;-95
2023/07/17 00:17:33;;;;;;;;;;;23.80;97.00;23.80;99843.00;;;;337155;28;95217;-96
2023/07/17 00:17:45;;;;;;;;;;;23.80;96.90;23.70;99848.00;;;;340324;28;83492;-96
2023/07/17 00:17:56;;;;;;;;;;;23.80;97.00;23.70;99849.00;;;;338120;28;94833;-96
2023/07/17 00:18:08;;;;;;;;;;;23.80;97.00;23.70;99839.00;;;;336943;28;82446;-96
2023/07/17 00:18:20;;;;;;;;;;;23.80;97.00;23.70;99846.00;;;;338701;28;93829;-96
2023/07/17 00:18:34;;;;;;;;;;;23.70;96.90;23.70;99852.00;;;;337803;28;82463;-96
2023/07/17 00:18:46;;;;;;;;;;;23.80;97.00;23.60;99845.00;;;;335913;28;96665;-96
2023/07/17 00:18:58;;;;;;;;;;;23.80;97.00;23.70;99851.00;;;;336764;28;82518;-96
2023/07/17 00:19:10;;;;;;;;;;;23.70;96.90;23.70;99842.00;;;;337346;28;97638;-96
2023/07/17 00:19:22;;;;;;;;;;;23.70;97.10;23.70;99851.00;;;;340790;28;82573;-96
2023/07/17 00:19:37;;;;;;;;;;;23.70;97.00;23.70;99852.00;;;;336047;28;96591;-96
2023/07/17 00:19:53;;;;;;;;;;;23.70;97.10;23.70;99849.00;;;;336983;28;83320;-96
2023/07/17 00:20:06;;;;;;;;;;;23.70;97.10;23.70;99850.00;;;;337501;28;95072;-96
2023/07/17 00:20:18;;;;;;;;;;;23.70;97.00;23.70;99845.00;;;;337950;28;82502;-96
2023/07/17 00:20:30;;;;;;;;;;;23.70;97.10;23.70;99853.00;;;;337365;28;95642;-96
2023/07/17 00:20:42;;;;;;;;;;;23.70;97.00;23.70;99843.00;;;;339424;28;82465;-96
2023/07/17 00:20:54;;;;;;;;;;;23.70;97.00;23.70;99855.00;;;;338716;28;95654;-96
2023/07/17 00:21:06;;;;;;;;;;;23.70;97.00;23.80;99844.00;;;;338190;28;83446;-95
2023/07/17 00:21:19;;;;;;;;;;;23.70;97.00;23.70;99850.00;;;;337345;28;96579;-96
2023/07/17 00:21:31;;;;;;;;;;;23.70;96.90;23.70;99850.00;;;;339054;28;82592;-96
2023/07/17 00:21:43;;;;;;;;;;;23.70;97.20;23.70;99846.00;;;;338760;28;95626;-96
2023/07/17 00:21:54;;;;;;;;;;;23.70;96.90;23.70;99843.00;;;;339495;28;83249;-96
2023/07/17 00:22:07;;;;;;;;;;;23.70;96.80;23.70;99851.00;;;;336019;28;95769;-96
2023/07/17 00:22:19;;;;;;;;;;;23.70;96.90;23.50;99834.00;;;;337699;28;83489;-96
2023/07/17 00:22:30;;;;;;;;;;;23.70;96.90;23.60;99842.00;;;;337473;28;96067;-96
2023/07/17 00:22:44;;;;;;;;;;;23.70;96.90;23.60;99841.00;;;;336855;28;83293;-96
2023/07/17 00:22:55;;;;;;;;;;;23.70;96.90;23.70;99837.00;;;;336872;28;95743;-96
2023/07/17 00:23:07;;;;;;;;;;;23.70;96.90;23.70;99835.00;;;;337917;28;83506;-96
2023/07/17 00:23:20;;;;;;;;;;;23.70;96.90;23.70;99850.00;;;;337416;28;97161;-96
2023/07/17 00:23:32;;;;;;;;;;;23.70;97.00;23.70;99843.00;;;;339512;28;82322;-96
2023/07/17 00:23:47;;;;;;;;;;;23.70;97.00;23.70;99841.00;;;;335893;28;94577;-96
2023/07/17 00:23:59;;;;;;;;;;;23.70;97.00;23.70;99839.00;;;;335538;29;82470;-96
2023/07/17 00:24:11;;;;;;;;;;;23.70;96.90;23.70;99833.00;;;;337172;28;94591;-96
2023/07/17 00:24:23;;;;;;;;;;;23.70;96.90;23.60;99832.00;;;;336994;28;82570;-96
2023/07/17 00:24:35;;;;;;;;;;;23.70;96.90;23.60;99843.00;;;;337442;28;95449;-96
2023/07/17 00:24:46;;;;;;;;;;;23.70;97.00;23.60;99835.00;;;;336603;28;83098;-96
2023/07/17 00:24:58;;;;;;;;;;;23.60;97.00;23.60;99832.00;;;;336102;28;95051;-96
2023/07/17 00:25:11;;;;;;;;;;;23.70;97.00;23.60;99835.00;;;;336890;28;82523;-96
2023/07/17 00:25:23;;;;;;;;;;;23.60;97.00;23.60;99838.00;;;;335790;28;97981;-96
2023/07/17 00:25:35;;;;;;;;;;;23.60;97.00;23.60;99840.00;;;;335884;28;82540;-96
2023/07/17 00:25:47;;;;;;;;;;;23.60;97.00;23.60;99836.00;;;;335616;28;96019;-96
2023/07/17 00:25:58;;;;;;;;;;;23.60;97.00;23.60;99831.00;;;;338034;28;83472;-96
2023/07/17 00:26:11;;;;;;;;;;;23.60;97.00;23.50;99839.00;;;;338268;28;95320;-96
2023/07/17 00:26:23;;;;;;;;;;;23.60;97.00;23.60;99827.00;;;;336939;28;83619;-96
2023/07/17 00:26:35;;;;;;;;;;;23.60;97.00;23.60;99826.00;;;;337267;28;94552;-96
2023/07/17 00:26:47;;;;;;;;;;;23.60;97.10;23.70;99841.00;;;;338157;28;82442;-96
2023/07/17 00:26:59;;;;;;;;;;;23.60;97.20;23.70;99842.00;;;;336015;28;95675;-96
2023/07/17 00:27:11;;;;;;;;;;;23.60;97.20;23.70;99831.00;;;;336863;28;83506;-96
2023/07/17 00:27:23;;;;;;;;;;;23.60;97.30;23.60;99833.00;;;;336333;28;96132;-96
2023/07/17 00:27:35;;;;;;;;;;;23.60;97.30;23.60;99833.00;;;;337454;28;82581;-96
2023/07/17 00:27:47;;;;;;;;;;;23.60;97.30;23.50;99829.00;;;;335898;28;95704;-96
2023/07/17 00:27:59;;;;;;;;;;;23.60;97.30;23.40;99837.00;;;;337062;28;82537;-96
2023/07/17 00:28:10;;;;;;;;;;;23.60;97.30;23.50;99841.00;;;;335903;28;95821;-96
2023/07/17 00:28:22;;;;;;;;;;;23.60;97.30;23.50;99836.00;;;;337745;28;83474;-96
2023/07/17 00:28:34;;;;;;;;;;;23.60;97.30;23.50;99837.00;;;;336959;28;96621;-96
2023/07/17 00:28:46;;;;;;;;;;;23.50;97.20;23.60;99831.00;;;;339196;28;83464;-96
2023/07/17 00:29:21;;;;;;;;;;;23.50;97.20;23.60;99841.00;;;;337795;28;95649;-96
2023/07/17 00:29:33;;;;;;;;;;;23.50;97.30;23.60;99837.00;;;;338379;28;82577;-96
2023/07/17 00:29:45;;;;;;;;;;;23.60;97.30;23.50;99829.00;;;;336055;28;95473;-96
2023/07/17 00:29:57;;;;;;;;;;;23.60;97.30;23.50;99830.00;;;;337963;28;83568;-96
2023/07/17 00:30:09;;;;;;;;;;;23.60;97.30;23.50;99835.00;;;;336144;28;95647;-96
2023/07/17 00:30:21;;;;;;;;;;;23.60;97.30;23.60;99833.00;;;;335640;28;82537;-96
2023/07/17 00:30:33;;;;;;;;;;;23.50;97.30;23.70;99835.00;;;;335252;28;95953;-96
2023/07/17 00:30:45;;;;;;;;;;;23.60;97.40;23.70;99834.00;;;;335501;29;82546;-96
2023/07/17 00:30:57;;;;;;;;;;;23.50;97.40;23.60;99837.00;;;;336033;28;95460;-96
2023/07/17 00:31:09;;;;;;;;;;;23.60;97.30;23.60;99833.00;;;;338158;28;83152;-96
2023/07/17 00:31:21;;;;;;;;;;;23.50;97.30;23.50;99831.00;;;;337553;28;95310;-96
2023/07/17 00:31:33;;;;;;;;;;;23.60;97.30;23.60;99834.00;;;;339174;28;82541;-96
2023/07/17 00:31:45;;;;;;;;;;;23.50;97.30;23.50;99834.00;;;;335612;28;96422;-96
2023/07/17 00:31:57;;;;;;;;;;;23.60;97.30;23.60;99835.00;;;;337985;28;83469;-96
2023/07/17 00:32:12;;;;;;;;;;;23.50;97.30;23.60;99834.00;;;;339693;28;95897;-96
2023/07/17 00:32:24;;;;;;;;;;;23.50;97.30;23.50;99833.00;;;;336694;28;82476;-96
2023/07/17 00:32:36;;;;;;;;;;;23.50;97.30;23.60;99829.00;;;;336200;28;95906;-96
2023/07/17 00:32:48;;;;;;;;;;;23.60;97.30;23.60;99829.00;;;;336647;28;83364;-96
2023/07/17 00:33:00;;;;;;;;;;;23.50;97.20;23.60;99834.00;;;;335802;28;95805;-96
2023/07/17 00:33:12;;;;;;;;;;;23.50;97.30;23.60;99839.00;;;;337137;28;82529;-96
2023/07/17 00:33:24;;;;;;;;;;;23.50;97.20;23.60;99834.00;;;;335879;28;94132;-96
2023/07/17 00:33:36;;;;;;;;;;;23.50;97.20;23.70;99835.00;;;;337286;28;82604;-96
2023/07/17 00:33:47;;;;;;;;;;;23.60;97.20;23.60;99838.00;;;;337312;28;96874;-96
2023/07/17 00:33:59;;;;;;;;;;;23.60;97.40;23.70;99829.00;;;;336767;28;82592;-96
2023/07/17 00:34:11;;;;;;;;;;;23.60;97.10;23.60;99835.00;;;;337142;28;96326;-96
2023/07/17 00:34:23;;;;;;;;;;;23.60;97.10;23.60;99840.00;;;;338170;28;82493;-96
2023/07/17 00:34:35;;;;;;;;;;;23.60;97.10;23.60;99835.00;;;;336079;28;96412;-95
2023/07/17 00:34:47;;;;;;;;;;;23.60;97.10;23.50;99836.00;;;;337403;28;84342;-95
2023/07/17 00:34:59;;;;;;;;;;;23.60;97.20;23.50;99834.00;;;;337331;28;95361;-96
2023/07/17 00:35:11;;;;;;;;;;;23.60;97.10;23.40;99842.00;;;;339548;28;82403;-95
2023/07/17 00:35:23;;;;;;;;;;;23.60;97.10;23.50;99839.00;;;;337574;28;95747;-95
2023/07/17 00:35:35;;;;;;;;;;;23.60;97.10;23.60;99832.00;;;;339335;28;83449;-95
2023/07/17 00:35:47;;;;;;;;;;;23.50;97.10;23.60;99832.00;;;;335940;28;97562;-95
2023/07/17 00:35:59;;;;;;;;;;;23.60;97.10;23.60;99833.00;;;;336862;28;83374;-96
2023/07/17 00:36:10;;;;;;;;;;;23.60;97.10;23.60;99838.00;;;;337359;28;95638;-96
2023/07/17 00:36:22;;;;;;;;;;;23.60;97.10;23.60;99831.00;;;;338018;28;82552;-94
2023/07/17 00:36:34;;;;;;;;;;;23.60;97.00;23.60;99831.00;;;;336058;28;95129;-96
2023/07/17 00:36:46;;;;;;;;;;;23.60;97.00;23.60;99833.00;;;;336860;28;83310;-96
2023/07/17 00:36:58;;;;;;;;;;;23.60;97.10;23.60;99844.00;;;;337246;28;95794;-96
2023/07/17 00:37:10;;;;;;;;;;;23.60;97.10;23.60;99834.00;;;;336855;28;82431;-96
2023/07/17 00:37:22;;;;;;;;;;;23.60;97.10;23.70;99832.00;;;;337444;28;95709;-96
2023/07/17 00:37:34;;;;;;;;;;;23.60;97.10;23.60;99832.00;;;;336925;28;83314;-96
2023/07/17 00:37:46;;;;;;;;;;;23.60;97.10;23.60;99832.00;;;;335874;28;95610;-96
2023/07/17 00:37:58;;;;;;;;;;;23.60;97.10;23.60;99838.00;;;;336696;28;82526;-96
2023/07/17 00:38:10;;;;;;;;;;;23.60;97.10;23.60;99838.00;;;;336748;28;95843;-96
2023/07/17 00:38:22;;;;;;;;;;;23.60;97.10;23.50;99842.00;;;;337656;28;82464;-96
2023/07/17 00:38:33;;;;;;;;;;;23.60;97.10;23.50;99835.00;;;;339060;28;97397;-96
2023/07/17 00:38:45;;;;;;;;;;;23.60;97.10;23.60;99834.00;;;;335541;29;82462;-96
2023/07/17 00:38:57;;;;;;;;;;;23.60;97.10;23.60;99837.00;;;;338506;28;94570;-96
2023/07/17 00:39:10;;;;;;;;;;;23.60;97.20;23.60;99837.00;;;;339313;28;82564;-96
2023/07/17 00:39:23;;;;;;;;;;;23.60;97.20;23.60;99839.00;;;;336134;28;95420;-96
2023/07/17 00:39:35;;;;;;;;;;;23.60;97.10;23.50;99844.00;;;;337985;28;82523;-96
2023/07/17 00:39:48;;;;;;;;;;;23.60;97.00;23.50;99845.00;;;;337907;28;95549;-96
2023/07/17 00:39:59;;;;;;;;;;;23.50;97.00;23.60;99839.00;;;;338208;28;82419;-96
2023/07/17 00:40:12;;;;;;;;;;;23.60;97.00;23.60;99839.00;;;;336123;28;95736;-96
2023/07/17 00:40:24;;;;;;;;;;;23.60;97.10;23.60;99838.00;;;;338263;28;82459;-96
2023/07/17 00:40:41;;;;;;;;;;;23.50;97.00;23.60;99839.00;;;;337218;28;95812;-96
2023/07/17 00:40:53;;;;;;;;;;;23.60;97.10;23.60;99848.00;;;;338074;28;82443;-96
2023/07/17 00:41:05;;;;;;;;;;;23.60;97.10;23.60;99842.00;;;;337485;28;95473;-96
2023/07/17 00:41:17;;;;;;;;;;;23.60;97.00;23.60;99835.00;;;;337052;28;82489;-96
2023/07/17 00:41:29;;;;;;;;;;;23.60;97.10;23.60;99843.00;;;;335995;28;95264;-96
2023/07/17 00:41:41;;;;;;;;;;;23.60;97.10;23.70;99835.00;;;;335106;28;82583;-96
2023/07/17 00:41:53;;;;;;;;;;;23.60;97.10;23.70;99844.00;;;;338722;28;96133;-96
2023/07/17 00:42:05;;;;;;;;;;;23.60;97.10;23.70;99852.00;;;;339414;28;82497;-96
2023/07/17 00:42:17;;;;;;;;;;;23.60;97.10;23.70;99837.00;;;;336645;28;95778;-96
2023/07/17 00:42:29;;;;;;;;;;;23.60;97.10;23.60;99844.00;;;;335648;29;82492;-96
2023/07/17 00:42:40;;;;;;;;;;;23.60;97.00;23.60;99840.00;;;;334823;29;95639;-96
2023/07/17 00:42:59;;;;;;;;;;;23.60;97.00;23.60;99844.00;;;;336722;28;83350;-96
2023/07/17 00:43:11;;;;;;;;;;;23.60;97.00;23.60;99842.00;;;;335964;28;94533;-96
2023/07/17 00:43:23;;;;;;;;;;;23.60;97.00;23.60;99846.00;;;;335490;28;82528;-96
2023/07/17 00:43:35;;;;;;;;;;;23.60;97.00;23.60;99842.00;;;;336293;28;95863;-96
2023/07/17 00:43:46;;;;;;;;;;;23.60;97.00;23.60;99837.00;;;;335564;29;82409;-95
2023/07/17 00:43:58;;;;;;;;;;;23.60;97.10;23.60;99842.00;;;;337234;28;95487;-96
2023/07/17 00:44:10;;;;;;;;;;;23.60;97.10;23.50;99843.00;;;;336877;28;82481;-96
2023/07/17 00:44:22;;;;;;;;;;;23.60;97.10;23.60;99844.00;;;;337233;28;95408;-96
2023/07/17 00:44:38;;;;;;;;;;;23.60;97.10;23.60;99848.00;;;;336885;28;82434;-96
2023/07/17 00:44:49;;;;;;;;;;;23.60;97.10;23.60;99849.00;;;;337423;28;95496;-96
2023/07/17 00:45:02;;;;;;;;;;;23.60;97.20;23.70;99849.00;;;;336493;28;82531;-96
2023/07/17 00:45:13;;;;;;;;;;;23.60;97.20;23.70;99838.00;;;;335745;28;94754;-96
2023/07/17 00:45:27;;;;;;;;;;;23.60;97.20;23.60;99846.00;;;;335416;28;83455;-96
2023/07/17 00:45:40;;;;;;;;;;;23.60;97.20;23.60;99847.00;;;;337373;28;95644;-96
2023/07/17 00:45:52;;;;;;;;;;;23.60;97.10;23.60;99839.00;;;;339548;28;82435;-96
2023/07/17 00:46:04;;;;;;;;;;;23.60;97.10;23.60;99844.00;;;;336039;28;97865;-96
2023/07/17 00:46:18;;;;;;;;;;;23.60;97.10;23.70;99845.00;;;;339321;28;82561;-96
2023/07/17 00:46:31;;;;;;;;;;;23.60;97.20;23.70;99845.00;;;;334801;28;94464;-96
2023/07/17 00:46:43;;;;;;;;;;;23.60;97.40;23.80;99845.00;;;;338842;28;82365;-96
2023/07/17 00:46:54;;;;;;;;;;;23.60;97.10;23.70;99846.00;;;;336317;28;95433;-96
2023/07/17 00:47:07;;;;;;;;;;;23.60;97.10;23.70;99842.00;;;;336300;28;82529;-96
2023/07/17 00:47:18;;;;;;;;;;;23.60;97.00;23.70;99837.00;;;;336769;28;95415;-96
2023/07/17 00:47:31;;;;;;;;;;;23.60;96.80;23.70;99843.00;;;;339777;28;82512;-96
2023/07/17 00:47:43;;;;;;;;;;;23.60;96.70;23.70;99841.00;;;;336107;28;95327;-96
2023/07/17 00:47:55;;;;;;;;;;;23.70;96.70;23.70;99838.00;;;;336995;28;82502;-96
2023/07/17 00:48:07;;;;;;;;;;;23.60;96.70;23.70;99846.00;;;;337385;28;96509;-96
2023/07/17 00:48:19;;;;;;;;;;;23.70;96.70;23.70;99841.00;;;;336873;28;82533;-96
2023/07/17 00:48:31;;;;;;;;;;;23.60;96.60;23.70;99846.00;;;;338601;28;94251;-96
2023/07/17 00:48:43;;;;;;;;;;;23.70;96.70;23.70;99839.00;;;;338182;28;82582;-96
2023/07/17 00:48:54;;;;;;;;;;;23.70;96.70;23.70;99846.00;;;;337075;28;94623;-96
2023/07/17 00:49:06;;;;;;;;;;;23.70;96.60;23.80;99843.00;;;;338116;28;83458;-96
2023/07/17 00:49:19;;;;;;;;;;;23.70;96.60;23.60;99837.00;;;;338766;28;95357;-96
2023/07/17 00:49:31;;;;;;;;;;;23.70;96.60;23.70;99846.00;;;;337989;28;82671;-96
2023/07/17 00:49:43;;;;;;;;;;;23.70;96.60;23.70;99853.00;;;;336291;28;95335;-96
2023/07/17 00:49:55;;;;;;;;;;;23.70;96.60;23.70;99848.00;;;;338322;28;82440;-96
2023/07/17 00:50:07;;;;;;;;;;;23.70;96.60;23.70;99848.00;;;;337248;28;95173;-96
2023/07/17 00:50:19;;;;;;;;;;;23.70;96.60;23.70;99848.00;;;;338753;28;82609;-96
2023/07/17 00:50:30;;;;;;;;;;;23.70;96.60;23.70;99841.00;;;;338860;28;95959;-96
2023/07/17 00:50:42;;;;;;;;;;;23.70;96.60;23.70;99850.00;;;;336257;28;83381;-96
2023/07/17 00:50:54;;;;;;;;;;;23.70;96.60;23.70;99850.00;;;;336128;28;97126;-96
2023/07/17 00:51:06;;;;;;;;;;;23.70;96.60;23.70;99849.00;;;;342100;28;83510;-96
2023/07/17 00:51:18;;;;;;;;;;;23.70;96.60;23.80;99843.00;;;;337485;28;95017;-96
2023/07/17 00:51:30;;;;;;;;;;;23.70;96.50;23.70;99851.00;;;;339527;28;82489;-96
2023/07/17 00:51:42;;;;;;;;;;;23.70;96.40;23.70;99856.00;;;;337509;28;96134;-95
2023/07/17 00:51:54;;;;;;;;;;;23.70;96.40;23.70;99848.00;;;;337819;28;82611;-96
2023/07/17 00:52:06;;;;;;;;;;;23.70;96.40;23.70;99848.00;;;;338664;28;96682;-95
2023/07/17 00:52:18;;;;;;;;;;;23.70;96.30;23.70;99848.00;;;;338277;28;82579;-96
2023/07/17 00:52:30;;;;;;;;;;;23.70;96.20;23.70;99849.00;;;;338741;28;96360;-96
2023/07/17 00:52:42;;;;;;;;;;;23.70;96.20;23.70;99853.00;;;;336832;28;82577;-96
2023/07/17 00:52:54;;;;;;;;;;;23.70;96.20;23.70;99852.00;;;;336266;28;95310;-96
2023/07/17 00:53:06;;;;;;;;;;;23.70;96.10;23.70;99859.00;;;;338968;28;83551;-96
2023/07/17 00:53:18;;;;;;;;;;;23.70;96.10;23.70;99852.00;;;;336211;28;96418;-96
2023/07/17 00:53:30;;;;;;;;;;;23.70;96.10;23.70;99845.00;;;;336858;28;82526;-96
2023/07/17 00:53:42;;;;;;;;;;;23.70;96.00;23.70;99852.00;;;;336122;28;95995;-96
2023/07/17 00:53:54;;;;;;;;;;;23.70;96.00;23.70;99852.00;;;;340963;28;82546;-96
2023/07/17 00:54:06;;;;;;;;;;;23.70;96.00;23.70;99851.00;;;;338808;28;97660;-96
2023/07/17 00:54:18;;;;;;;;;;;23.70;96.00;23.60;99845.00;;;;339795;28;82629;-96
2023/07/17 00:54:31;;;;;;;;;;;23.70;96.00;23.70;99847.00;;;;336584;28;95728;-96
2023/07/17 00:54:43;;;;;;;;;;;23.70;96.10;23.70;99852.00;;;;340148;28;82453;-96
2023/07/17 00:54:54;;;;;;;;;;;23.70;96.00;23.70;99848.00;;;;337482;28;95321;-96
2023/07/17 00:55:08;;;;;;;;;;;23.70;96.00;23.70;99849.00;;;;339998;28;82489;-96
2023/07/17 00:55:20;;;;;;;;;;;23.70;96.00;23.70;99846.00;;;;336667;28;94862;-96
2023/07/17 00:55:32;;;;;;;;;;;23.70;96.00;23.70;99852.00;;;;337434;28;83341;-96
2023/07/17 00:55:44;;;;;;;;;;;23.70;96.00;23.70;99862.00;;;;337738;28;94527;-96
2023/07/17 00:55:56;;;;;;;;;;;23.70;96.00;23.70;99853.00;;;;336015;29;82520;-96
2023/07/17 00:56:07;;;;;;;;;;;23.70;96.00;23.70;99846.00;;;;336457;28;97794;-96
2023/07/17 00:56:19;;;;;;;;;;;23.70;96.00;23.60;99851.00;;;;338469;28;82527;-96
2023/07/17 00:56:31;;;;;;;;;;;23.70;96.00;23.70;99848.00;;;;335265;29;95440;-96
2023/07/17 00:56:43;;;;;;;;;;;23.70;96.00;23.70;99848.00;;;;338421;28;82496;-96
2023/07/17 00:56:57;;;;;;;;;;;23.70;96.10;23.70;99850.00;;;;335105;28;96722;-96
2023/07/17 00:57:09;;;;;;;;;;;23.70;96.10;23.70;99850.00;;;;335993;28;83344;-96
2023/07/17 00:57:21;;;;;;;;;;;23.70;96.10;23.70;99850.00;;;;339095;28;95434;-96
2023/07/17 00:57:36;;;;;;;;;;;23.70;96.10;23.70;99848.00;;;;338511;28;83394;-96
2023/07/17 00:57:48;;;;;;;;;;;23.70;96.20;23.60;99851.00;;;;337840;28;95860;-96
2023/07/17 00:58:00;;;;;;;;;;;23.70;96.20;23.60;99853.00;;;;339570;28;82589;-96
2023/07/17 00:58:13;;;;;;;;;;;23.70;96.20;23.70;99856.00;;;;338843;28;95527;-96
2023/07/17 00:58:24;;;;;;;;;;;23.70;96.20;23.70;99851.00;;;;338048;28;82547;-96
2023/07/17 00:58:36;;;;;;;;;;;23.70;96.20;23.70;99860.00;;;;335829;28;96524;-96
2023/07/17 00:58:48;;;;;;;;;;;23.70;96.20;23.70;99848.00;;;;336775;28;83536;-96
2023/07/17 00:59:00;;;;;;;;;;;23.70;96.20;23.70;99846.00;;;;337434;28;96320;-96
2023/07/17 00:59:12;;;;;;;;;;;23.70;96.10;23.70;99849.00;;;;336672;28;82451;-96
2023/07/17 00:59:24;;;;;;;;;;;23.70;96.10;23.70;99863.00;;;;337156;28;94609;-96
2023/07/17 00:59:36;;;;;;;;;;;23.70;96.10;23.60;99847.00;;;;337936;28;83470;-96
2023/07/17 00:59:48;;;;;;;;;;;23.70;96.00;23.60;99848.00;;;;336850;28;96979;-96
2023/07/17 01:00:00;;;;;;;;;;;23.70;96.30;23.60;99848.00;;;;336773;28;82673;-96
2023/07/17 01:00:12;;;;;;;;;;;23.70;96.10;23.60;99851.00;;;;334836;28;96122;-96
2023/07/17 01:00:24;;;;;;;;;;;23.70;96.20;23.70;99848.00;;;;339580;28;82450;-96
2023/07/17 01:00:36;;;;;;;;;;;23.70;96.20;23.60;99853.00;;;;334945;28;94908;-96
2023/07/17 01:00:48;;;;;;;;;;;23.70;96.20;23.70;99849.00;;;;338834;28;82569;-96